首页
METAR-TAF:

METAR-TAF

机场 :

圣胡安, 波多黎哥, 美国

路易斯·穆尼奥斯·马林国际机场

纬度: 18-27N, 经度: 066-00W, 海拔: 3米

当前天气观测

该预报发布于13分钟前的23:56 UTC
风速5节,风向东转东南
温度 26°C
湿度 84%
气压 1017 hPa
能見度: 16.1公里
散云层高于5000英尺

METAR: TJSJ 172356Z 11005KT 10SM SCT050 26/23 A3002 RMK AO2 SLP164 T02560228 10283 20256 51012

时间: 20:09 (00:09 UTC)

预报

该预报发布于31分钟前的23:38 UTC
预报有效从18日的 00点(UTC)到 18日的 24点(UTC)
风速7节,风向
能見度: 10公里
少量云层高于2500英尺
散云层高于4000英尺
从 18日的 0300点(UTC)
风速4节,风向东转东南
能見度: 10公里
散云层高于2500英尺
散云层高于5000英尺
附近有阵雨
从 18日的 1400点(UTC)
风速12节,风向东转东北
能見度: 10公里
少量云层高于3000英尺
散云层高于6000英尺

TAF: TJSJ 172338Z 1800/1824 09007KT P6SM FEW025 SCT040 FM180300 11004KT P6SM VCSH SCT025 SCT050 FM181400 07012KT P6SM FEW030 SCT060

超过4000个机场的气象观测和天气预报(METAR&TAF报告)。

可查询的气象台以黄色和红色小点在地图上表示。

将鼠标移到小点上方,可查看气象台名称。

然后点击查看天气观测和预报。

如需切换地图:点击带黑十字的绿色按钮放大地图;点击带横线的绿色按钮缩小地图;或者点击绿色箭头查看邻近地区的地图。


METAR-TAF: